createdAt,value
2022-08-07T00:00:26.183Z,93.70
2022-08-07T00:02:53.778Z,93.70
2022-08-07T00:05:23.623Z,93.80
2022-08-07T00:07:59.573Z,93.80
2022-08-07T00:10:30.385Z,93.90
2022-08-07T00:13:02.263Z,93.80
2022-08-07T00:15:46.264Z,94.00
2022-08-07T00:18:23.849Z,93.90
2022-08-07T00:20:57.538Z,93.90
2022-08-07T00:23:30.437Z,93.70
2022-08-07T00:26:02.851Z,93.80
2022-08-07T00:28:41.822Z,93.80
2022-08-07T00:31:16.591Z,93.80
2022-08-07T00:33:47.462Z,93.80
2022-08-07T00:36:16.943Z,93.80
2022-08-07T00:38:44.264Z,94.10
2022-08-07T00:41:14.652Z,94.00
2022-08-07T00:43:59.568Z,93.90
2022-08-07T00:46:30.904Z,94.00
2022-08-07T00:49:02.901Z,93.90
2022-08-07T00:51:57.350Z,94.00
2022-08-07T00:54:19.829Z,94.00
2022-08-07T00:56:51.201Z,94.00
2022-08-07T00:59:20.345Z,93.90
2022-08-07T01:02:04.226Z,94.00
2022-08-07T01:04:43.017Z,94.20
2022-08-07T01:07:11.999Z,94.40
2022-08-07T01:10:05.711Z,94.30
2022-08-07T01:12:30.741Z,94.40
2022-08-07T01:15:01.499Z,94.40
2022-08-07T01:17:31.170Z,94.70
2022-08-07T01:20:16.524Z,94.70
2022-08-07T01:23:00.535Z,94.60
2022-08-07T01:25:55.327Z,94.30
2022-08-07T01:28:24.742Z,94.60
2022-08-07T01:30:55.591Z,94.60
2022-08-07T01:33:25.174Z,94.60
2022-08-07T01:36:12.500Z,94.80
2022-08-07T01:38:45.523Z,94.70
2022-08-07T01:41:26.147Z,94.80
2022-08-07T01:43:57.964Z,95.00
2022-08-07T01:46:26.795Z,95.20
2022-08-07T01:48:55.151Z,95.30
2022-08-07T01:52:04.036Z,95.50
2022-08-07T01:54:33.092Z,95.50
2022-08-07T01:57:27.835Z,95.40
2022-08-07T02:00:13.396Z,95.50
2022-08-07T02:03:12.033Z,95.90
2022-08-07T02:05:59.996Z,95.80
2022-08-07T02:08:38.042Z,95.70
2022-08-07T02:11:08.999Z,95.70
2022-08-07T02:13:57.316Z,96.00
2022-08-07T02:16:33.606Z,95.70
2022-08-07T02:20:06.899Z,95.90
2022-08-07T02:22:02.884Z,95.90
2022-08-07T02:24:35.040Z,96.10
2022-08-07T02:27:03.888Z,95.90
2022-08-07T02:29:43.416Z,95.90
2022-08-07T02:32:23.528Z,96.00
2022-08-07T02:34:58.930Z,96.40
2022-08-07T02:37:34.189Z,96.00
2022-08-07T02:40:29.810Z,96.10
2022-08-07T02:43:00.039Z,96.40
2022-08-07T02:46:00.434Z,96.40
2022-08-07T02:48:18.895Z,96.40
2022-08-07T02:50:52.669Z,96.20
2022-08-07T02:53:28.726Z,96.20
2022-08-07T02:56:03.153Z,95.90
2022-08-07T02:58:36.694Z,95.80
2022-08-07T03:01:16.002Z,96.30
2022-08-07T03:03:49.800Z,96.40
2022-08-07T03:06:25.942Z,96.10
2022-08-07T03:09:02.819Z,96.00
2022-08-07T03:11:32.678Z,96.30
2022-08-07T03:14:02.502Z,96.20
2022-08-07T03:16:34.837Z,96.30
2022-08-07T03:19:03.525Z,96.60
2022-08-07T03:21:33.474Z,96.60
2022-08-07T03:24:20.195Z,96.50
2022-08-07T03:26:57.835Z,96.80
2022-08-07T03:29:44.650Z,97.10
2022-08-07T03:32:30.854Z,96.80
2022-08-07T03:35:17.988Z,96.70
2022-08-07T03:37:55.240Z,96.60
2022-08-07T03:40:31.132Z,97.20
2022-08-07T03:43:13.696Z,97.40
2022-08-07T03:45:47.633Z,97.40
2022-08-07T03:48:19.749Z,97.50
2022-08-07T03:50:55.815Z,97.40
2022-08-07T03:54:33.119Z,97.40
2022-08-07T03:56:32.581Z,97.40
2022-08-07T03:59:08.174Z,97.40
2022-08-07T04:01:46.954Z,97.30
2022-08-07T04:04:18.206Z,97.00
2022-08-07T04:06:50.660Z,97.10
2022-08-07T04:09:23.012Z,97.00
2022-08-07T04:12:26.748Z,97.50
2022-08-07T04:14:46.215Z,97.40
2022-08-07T04:17:21.096Z,97.30
2022-08-07T04:19:54.002Z,97.40
2022-08-07T04:22:29.243Z,97.50
2022-08-07T04:25:02.135Z,98.00
2022-08-07T04:27:35.571Z,98.10
2022-08-07T04:30:20.998Z,98.20
2022-08-07T04:33:08.483Z,98.40
2022-08-07T04:35:38.673Z,97.90
2022-08-07T04:38:13.063Z,97.80
2022-08-07T04:40:52.244Z,97.70
2022-08-07T04:44:09.749Z,97.80
2022-08-07T04:47:03.912Z,97.90
2022-08-07T04:50:07.831Z,98.10
2022-08-07T04:52:54.199Z,98.00
2022-08-07T04:58:16.043Z,98.10
2022-08-07T05:02:03.795Z,98.10
2022-08-07T05:04:53.841Z,98.40
2022-08-07T05:07:36.526Z,98.40
2022-08-07T05:10:16.355Z,98.60
2022-08-07T05:14:44.729Z,98.60
2022-08-07T05:15:53.676Z,98.60
2022-08-07T05:18:30.932Z,98.70
2022-08-07T05:21:04.048Z,98.70
2022-08-07T05:23:38.652Z,98.70
2022-08-07T05:26:15.458Z,98.80
2022-08-07T05:28:52.059Z,98.70
2022-08-07T05:31:38.403Z,98.30
2022-08-07T05:34:20.010Z,98.10
2022-08-07T05:36:55.889Z,97.90
2022-08-07T05:40:16.759Z,97.90
2022-08-07T05:42:36.873Z,98.00
2022-08-07T05:45:25.673Z,98.10
2022-08-07T05:48:03.209Z,98.10
2022-08-07T05:50:42.997Z,98.00
2022-08-07T05:54:12.053Z,98.00
2022-08-07T05:56:03.750Z,97.80
2022-08-07T05:58:37.733Z,97.70
2022-08-07T06:01:12.196Z,97.60
2022-08-07T06:03:58.553Z,98.00
2022-08-07T06:06:32.555Z,97.80
2022-08-07T06:09:04.839Z,97.80
2022-08-07T06:11:36.152Z,97.80
2022-08-07T06:14:11.953Z,97.90
2022-08-07T06:16:50.379Z,97.90
2022-08-07T06:19:47.826Z,98.10
2022-08-07T06:22:24.019Z,97.90
2022-08-07T06:25:05.597Z,97.80
2022-08-07T06:27:59.819Z,97.80
2022-08-07T06:30:35.131Z,98.00
2022-08-07T06:33:12.648Z,98.10
2022-08-07T06:35:47.998Z,98.10
2022-08-07T06:38:30.846Z,98.20
2022-08-07T06:41:00.340Z,98.20
2022-08-07T06:43:39.907Z,98.30
2022-08-07T06:46:20.482Z,98.10
2022-08-07T06:49:00.316Z,98.10
2022-08-07T06:51:35.797Z,98.10
2022-08-07T06:55:33.829Z,98.20
2022-08-07T06:57:09.272Z,98.20
2022-08-07T07:00:14.350Z,98.30
2022-08-07T07:02:54.553Z,98.70
2022-08-07T07:06:02.681Z,98.40
2022-08-07T07:08:07.316Z,98.50
2022-08-07T07:10:47.552Z,98.50
2022-08-07T07:13:57.583Z,98.10
2022-08-07T07:16:31.461Z,99.00
2022-08-07T07:19:54.637Z,98.50
2022-08-07T07:22:12.053Z,99.10
2022-08-07T07:24:58.419Z,98.40
2022-08-07T07:28:01.900Z,98.30
2022-08-07T07:30:38.366Z,98.10
2022-08-07T07:33:07.948Z,97.80
2022-08-07T07:35:44.002Z,97.80
2022-08-07T07:38:25.959Z,98.20
2022-08-07T07:41:02.478Z,97.80
2022-08-07T07:43:47.737Z,97.40
2022-08-07T07:46:36.710Z,97.20
2022-08-07T07:50:32.964Z,97.40
2022-08-07T07:52:03.756Z,97.50
2022-08-07T07:54:35.987Z,98.10
2022-08-07T07:57:03.616Z,97.70
2022-08-07T07:59:52.000Z,97.00
2022-08-07T08:02:22.551Z,97.00
2022-08-07T08:05:11.534Z,96.70
2022-08-07T08:07:59.623Z,96.60
2022-08-07T08:10:37.654Z,96.40
2022-08-07T08:13:10.407Z,96.60
2022-08-07T08:15:57.742Z,96.20
2022-08-07T08:18:28.050Z,96.70
2022-08-07T08:20:59.060Z,95.70
2022-08-07T08:23:47.126Z,95.30
2022-08-07T08:26:34.333Z,95.30
2022-08-07T08:29:04.322Z,94.00
2022-08-07T08:32:10.144Z,93.90
2022-08-07T08:34:33.769Z,93.40
2022-08-07T08:37:03.906Z,93.20
2022-08-07T08:39:38.936Z,93.20
2022-08-07T08:42:27.121Z,92.80
2022-08-07T08:45:13.977Z,93.00
2022-08-07T08:48:10.767Z,92.90
2022-08-07T08:51:03.428Z,92.60
2022-08-07T08:54:11.225Z,92.40
2022-08-07T08:56:47.170Z,92.10
2022-08-07T08:59:24.949Z,92.00
2022-08-07T09:02:36.754Z,92.00
2022-08-07T09:05:32.283Z,92.60
2022-08-07T09:08:35.753Z,91.60
2022-08-07T09:11:24.182Z,91.80
2022-08-07T09:14:10.066Z,91.60
2022-08-07T09:16:57.455Z,91.70
2022-08-07T09:19:51.183Z,91.90
2022-08-07T09:24:30.792Z,91.50
2022-08-07T09:25:54.683Z,91.50
2022-08-07T09:30:01.206Z,91.40
2022-08-07T09:31:48.515Z,91.30
2022-08-07T09:34:31.678Z,91.70
2022-08-07T09:37:07.551Z,91.50
2022-08-07T09:39:59.546Z,91.40
2022-08-07T09:42:51.252Z,91.00
2022-08-07T09:47:50.660Z,91.00
2022-08-07T09:48:55.873Z,90.40
2022-08-07T09:52:15.852Z,91.00
2022-08-07T09:55:29.318Z,90.30
2022-08-07T09:58:42.596Z,90.50
2022-08-07T10:01:53.833Z,90.40
2022-08-07T10:04:38.151Z,90.40
2022-08-07T10:07:52.566Z,90.00
2022-08-07T10:11:17.012Z,88.90
2022-08-07T10:14:01.360Z,88.90
2022-08-07T10:16:41.742Z,89.30
2022-08-07T10:19:18.928Z,89.30
2022-08-07T10:22:15.727Z,88.70
2022-08-07T10:25:07.056Z,87.90
2022-08-07T10:28:03.452Z,87.30
2022-08-07T10:31:10.967Z,88.60
2022-08-07T10:34:06.877Z,87.20
2022-08-07T10:38:00.316Z,85.40
2022-08-07T10:40:46.602Z,86.30
2022-08-07T10:43:34.159Z,85.90
2022-08-07T10:46:13.142Z,86.30
2022-08-07T10:49:02.413Z,85.20
2022-08-07T10:51:39.438Z,86.60
2022-08-07T10:55:20.944Z,85.50
2022-08-07T10:58:31.958Z,84.10
2022-08-07T11:01:22.255Z,83.50
2022-08-07T11:04:32.239Z,84.90
2022-08-07T11:08:00.504Z,83.90
2022-08-07T11:10:57.943Z,83.60
2022-08-07T11:14:43.826Z,81.70
2022-08-07T11:17:01.981Z,82.80
2022-08-07T11:20:11.545Z,82.80
2022-08-07T11:23:03.122Z,81.40
2022-08-07T11:25:57.497Z,80.00
2022-08-07T11:28:41.359Z,80.40
2022-08-07T11:31:36.773Z,80.10
2022-08-07T11:34:24.731Z,79.70
2022-08-07T11:37:00.800Z,78.80
2022-08-07T11:39:39.688Z,77.90
2022-08-07T11:42:30.556Z,77.50
2022-08-07T11:45:12.338Z,76.30
2022-08-07T11:48:18.142Z,73.50
2022-08-07T11:51:12.120Z,75.80
2022-08-07T11:54:10.849Z,75.60
2022-08-07T11:57:16.003Z,71.60
2022-08-07T12:00:12.602Z,77.00
2022-08-07T12:02:55.928Z,75.70
2022-08-07T12:05:47.286Z,75.60
2022-08-07T12:08:31.901Z,75.60
2022-08-07T12:11:21.876Z,75.30
2022-08-07T12:14:04.624Z,75.50
2022-08-07T12:16:41.170Z,74.90
2022-08-07T12:20:03.311Z,75.60
2022-08-07T12:22:58.446Z,76.30
2022-08-07T12:26:02.777Z,76.60
2022-08-07T12:28:54.041Z,75.10
2022-08-07T12:32:04.095Z,76.40
2022-08-07T12:34:38.886Z,75.80
2022-08-07T12:37:16.514Z,76.00
2022-08-07T12:39:50.708Z,76.10
2022-08-07T12:42:27.858Z,74.90
2022-08-07T12:44:58.739Z,75.80
2022-08-07T12:48:04.165Z,74.50
2022-08-07T12:51:00.098Z,74.80
2022-08-07T12:54:03.242Z,73.30
2022-08-07T12:56:42.346Z,74.10
2022-08-07T12:59:21.762Z,72.70
2022-08-07T13:02:25.078Z,72.70
2022-08-07T13:05:15.127Z,73.00
2022-08-07T13:08:25.835Z,74.70
2022-08-07T13:11:16.252Z,75.10
2022-08-07T13:14:31.276Z,74.80
2022-08-07T13:17:09.955Z,74.40
2022-08-07T13:19:51.713Z,74.30
2022-08-07T13:22:40.798Z,73.40
2022-08-07T13:25:29.924Z,73.50
2022-08-07T13:28:18.308Z,71.50
2022-08-07T13:31:01.981Z,72.10
2022-08-07T13:34:34.066Z,71.00
2022-08-07T13:36:40.403Z,70.70
2022-08-07T13:40:33.097Z,72.60
2022-08-07T13:42:21.629Z,72.30
2022-08-07T13:44:55.239Z,71.70
2022-08-07T13:48:06.017Z,72.00
2022-08-07T13:50:34.238Z,72.30
2022-08-07T13:53:22.028Z,72.40
2022-08-07T13:55:54.289Z,73.20
2022-08-07T13:58:56.494Z,72.40
2022-08-07T14:01:26.297Z,73.20
2022-08-07T14:04:07.634Z,72.00
2022-08-07T14:06:38.732Z,71.90
2022-08-07T14:09:09.990Z,72.20
2022-08-07T14:12:00.459Z,72.10
2022-08-07T14:14:43.029Z,71.30
2022-08-07T14:18:12.256Z,71.20
2022-08-07T14:20:42.000Z,71.80
2022-08-07T14:23:12.392Z,72.70
2022-08-07T14:25:45.967Z,71.80
2022-08-07T14:28:17.199Z,72.50
2022-08-07T14:30:52.093Z,72.70
2022-08-07T14:33:23.433Z,71.40
2022-08-07T14:35:57.350Z,71.70
2022-08-07T14:38:30.750Z,71.50
2022-08-07T14:41:02.205Z,71.60
2022-08-07T14:43:55.486Z,72.00
2022-08-07T14:46:31.095Z,71.50
2022-08-07T14:52:05.065Z,71.30
2022-08-07T14:54:43.395Z,71.60
2022-08-07T14:57:14.446Z,71.80
2022-08-07T15:02:39.180Z,71.80
2022-08-07T15:05:19.785Z,72.40
2022-08-07T15:07:52.030Z,72.60
2022-08-07T15:10:26.799Z,72.30
2022-08-07T15:13:06.419Z,71.00
2022-08-07T15:15:52.722Z,71.10
2022-08-07T15:18:36.186Z,70.90
2022-08-07T15:21:58.686Z,71.80
2022-08-07T15:25:13.714Z,70.70
2022-08-07T15:27:06.051Z,70.80
2022-08-07T15:30:06.467Z,70.40
2022-08-07T15:32:39.656Z,70.20
2022-08-07T15:36:01.259Z,69.60
2022-08-07T15:38:30.161Z,69.40
2022-08-07T15:44:00.306Z,70.40
2022-08-07T15:46:32.384Z,70.60
2022-08-07T15:49:15.269Z,70.90
2022-08-07T15:54:34.628Z,70.60
2022-08-07T15:57:10.688Z,70.30
2022-08-07T15:59:59.334Z,71.70
2022-08-07T16:02:35.438Z,72.50
2022-08-07T16:05:15.291Z,72.90
2022-08-07T16:08:32.926Z,72.70
2022-08-07T16:10:36.772Z,73.50
2022-08-07T16:13:39.623Z,74.40
2022-08-07T16:16:48.418Z,73.80
2022-08-07T16:20:00.541Z,74.20
2022-08-07T16:22:36.488Z,73.80
2022-08-07T16:25:55.474Z,74.40
2022-08-07T16:30:08.246Z,74.50
2022-08-07T16:31:51.922Z,74.10
2022-08-07T16:34:40.794Z,74.00
2022-08-07T16:38:06.588Z,74.40
2022-08-07T16:41:01.336Z,74.70
2022-08-07T16:44:05.815Z,74.60
2022-08-07T16:47:17.865Z,74.40
2022-08-07T16:50:27.838Z,74.40
2022-08-07T16:54:02.102Z,74.20
2022-08-07T16:56:37.518Z,74.20
2022-08-07T16:59:21.278Z,74.50
2022-08-07T17:02:15.135Z,74.90
2022-08-07T17:06:19.850Z,75.10
2022-08-07T17:09:08.737Z,74.30
2022-08-07T17:12:04.435Z,74.00
2022-08-07T17:15:00.132Z,74.30
2022-08-07T17:17:44.249Z,74.90
2022-08-07T17:20:37.827Z,74.60
2022-08-07T17:23:32.088Z,74.80
2022-08-07T17:26:22.616Z,74.80
2022-08-07T17:30:13.117Z,75.30
2022-08-07T17:32:30.713Z,75.40
2022-08-07T17:35:50.146Z,74.70
2022-08-07T17:38:33.349Z,75.10
2022-08-07T17:42:01.093Z,74.40
2022-08-07T17:44:09.309Z,75.00
2022-08-07T17:46:55.583Z,75.50
2022-08-07T17:49:26.002Z,75.40
2022-08-07T17:52:06.606Z,75.50
2022-08-07T17:54:54.562Z,75.80
2022-08-07T17:57:56.530Z,75.80
2022-08-07T18:00:34.722Z,76.00
2022-08-07T18:04:03.900Z,75.90
2022-08-07T18:06:46.152Z,76.10
2022-08-07T18:09:48.353Z,77.10
2022-08-07T18:12:52.756Z,76.80
2022-08-07T18:15:32.834Z,78.30
2022-08-07T18:18:45.766Z,77.60
2022-08-07T18:21:42.166Z,77.30
2022-08-07T18:24:08.971Z,78.20
2022-08-07T18:27:12.202Z,78.20
2022-08-07T18:30:32.282Z,78.50
2022-08-07T18:33:00.293Z,78.40
2022-08-07T18:35:53.702Z,78.80
2022-08-07T18:38:58.251Z,79.10
2022-08-07T18:41:49.478Z,80.60
2022-08-07T18:45:40.008Z,80.60
2022-08-07T18:48:00.557Z,80.60
2022-08-07T18:50:46.990Z,80.70
2022-08-07T18:53:39.695Z,81.10
2022-08-07T18:56:30.725Z,81.30
2022-08-07T18:59:47.522Z,81.50
2022-08-07T19:02:44.679Z,82.60
2022-08-07T19:05:22.941Z,83.30
2022-08-07T19:08:05.271Z,84.20
2022-08-07T19:10:51.733Z,84.30
2022-08-07T19:13:49.922Z,84.60
2022-08-07T19:17:01.161Z,84.90
2022-08-07T19:19:32.755Z,84.90
2022-08-07T19:22:14.888Z,84.90
2022-08-07T19:24:48.729Z,85.20
2022-08-07T19:29:03.546Z,85.30
2022-08-07T19:31:05.898Z,85.50
2022-08-07T19:33:10.283Z,85.70
2022-08-07T19:35:43.623Z,86.00
2022-08-07T19:38:17.221Z,86.00
2022-08-07T19:40:50.487Z,86.20
2022-08-07T19:43:48.737Z,86.40
2022-08-07T19:46:17.820Z,86.30
2022-08-07T19:48:53.968Z,86.40
2022-08-07T19:51:50.717Z,86.60
2022-08-07T19:54:33.607Z,86.70
2022-08-07T19:58:04.126Z,86.70
2022-08-07T19:59:56.216Z,86.50
2022-08-07T20:02:35.220Z,87.00
2022-08-07T20:05:08.698Z,87.00
2022-08-07T20:07:47.396Z,87.30
2022-08-07T20:10:36.214Z,87.60
2022-08-07T20:13:27.026Z,87.80
2022-08-07T20:15:58.271Z,87.80
2022-08-07T20:18:31.933Z,87.90
2022-08-07T20:21:02.535Z,88.30
2022-08-07T20:23:43.334Z,88.10
2022-08-07T20:26:20.441Z,89.60
2022-08-07T20:28:59.785Z,89.40
2022-08-07T20:31:29.012Z,89.40
2022-08-07T20:33:58.635Z,89.60
2022-08-07T20:36:30.853Z,89.40
2022-08-07T20:39:00.745Z,90.00
2022-08-07T20:41:38.457Z,90.10
2022-08-07T20:44:12.505Z,90.10
2022-08-07T20:46:43.714Z,90.20
2022-08-07T20:49:57.995Z,90.20
2022-08-07T20:52:16.597Z,90.50
2022-08-07T20:54:53.186Z,90.80
2022-08-07T20:57:28.172Z,90.90
2022-08-07T21:00:07.624Z,90.60
2022-08-07T21:03:00.721Z,90.50
2022-08-07T21:05:51.484Z,90.40
2022-08-07T21:08:36.743Z,90.50
2022-08-07T21:11:07.406Z,90.50
2022-08-07T21:13:57.837Z,90.60
2022-08-07T21:16:27.449Z,90.60
2022-08-07T21:18:58.086Z,90.80
2022-08-07T21:21:29.304Z,90.70
2022-08-07T21:24:24.985Z,90.70
2022-08-07T21:27:26.782Z,91.00
2022-08-07T21:30:14.197Z,91.00
2022-08-07T21:33:21.473Z,91.10
2022-08-07T21:36:32.065Z,91.50
2022-08-07T21:38:59.775Z,91.50
2022-08-07T21:41:52.217Z,91.70
2022-08-07T21:44:30.031Z,91.50
2022-08-07T21:47:04.860Z,91.70
2022-08-07T21:50:00.926Z,91.50
2022-08-07T21:53:00.783Z,91.40
2022-08-07T21:55:48.120Z,91.50
2022-08-07T21:58:32.997Z,91.60
2022-08-07T22:01:13.615Z,91.60
2022-08-07T22:03:48.369Z,91.70
2022-08-07T22:06:28.897Z,91.70
2022-08-07T22:09:12.316Z,91.90
2022-08-07T22:11:53.059Z,92.20
2022-08-07T22:14:59.752Z,92.30
2022-08-07T22:17:36.878Z,92.20
2022-08-07T22:20:37.651Z,92.00
2022-08-07T22:23:40.264Z,91.70
2022-08-07T22:26:19.842Z,91.80
2022-08-07T22:29:37.995Z,91.90
2022-08-07T22:32:38.054Z,92.10
2022-08-07T22:35:11.035Z,91.90
2022-08-07T22:38:12.241Z,92.00
2022-08-07T22:41:03.088Z,92.10
2022-08-07T22:43:48.914Z,92.30
2022-08-07T22:46:43.145Z,92.20
2022-08-07T22:49:28.179Z,92.20
2022-08-07T22:52:40.068Z,92.50
2022-08-07T22:55:29.931Z,92.10
2022-08-07T22:58:13.083Z,92.10
2022-08-07T23:01:07.514Z,92.30
2022-08-07T23:04:03.492Z,92.50
2022-08-07T23:06:42.867Z,92.30
2022-08-07T23:10:05.452Z,92.20
2022-08-07T23:12:45.609Z,92.90
2022-08-07T23:15:21.880Z,93.00
2022-08-07T23:18:18.957Z,93.20
2022-08-07T23:21:05.830Z,93.00
2022-08-07T23:24:05.639Z,93.20
2022-08-07T23:26:50.304Z,93.30
2022-08-07T23:30:39.125Z,93.30
2022-08-07T23:34:34.162Z,93.40
2022-08-07T23:35:47.326Z,93.60
2022-08-07T23:39:00.113Z,93.00
2022-08-07T23:41:47.521Z,93.10
2022-08-07T23:44:51.466Z,92.80
2022-08-07T23:47:51.935Z,92.80
2022-08-07T23:50:37.639Z,93.10
2022-08-07T23:53:51.798Z,93.20
2022-08-07T23:56:34.972Z,93.50
